createdAt,value
2017-09-13T00:01:27.051Z,4.00
2017-09-13T00:03:54.490Z,3.10
2017-09-13T00:06:21.949Z,4.00
2017-09-13T00:08:49.381Z,3.78
2017-09-13T00:11:17.588Z,4.10
2017-09-13T00:13:45.028Z,3.43
2017-09-13T00:16:12.491Z,4.37
2017-09-13T00:18:39.923Z,4.05
2017-09-13T00:21:07.359Z,4.70
2017-09-13T00:23:35.551Z,4.40
2017-09-13T00:26:03.091Z,4.18
2017-09-13T00:28:30.530Z,3.77
2017-09-13T00:30:58.069Z,3.50
2017-09-13T00:33:25.499Z,4.18
2017-09-13T00:35:52.958Z,3.47
2017-09-13T00:38:20.391Z,3.60
2017-09-13T00:40:47.895Z,3.47
2017-09-13T00:43:15.323Z,3.25
2017-09-13T00:45:42.764Z,3.12
2017-09-13T00:48:10.209Z,3.65
2017-09-13T00:50:38.441Z,3.45
2017-09-13T00:53:05.870Z,3.53
2017-09-13T00:55:33.301Z,3.47
2017-09-13T00:58:01.503Z,2.83
2017-09-13T01:00:28.932Z,3.70
2017-09-13T01:02:56.367Z,3.28
2017-09-13T01:05:24.604Z,2.80
2017-09-13T01:07:52.044Z,2.87
2017-09-13T01:10:19.483Z,2.78
2017-09-13T01:12:46.929Z,3.07
2017-09-13T01:15:14.349Z,2.92
2017-09-13T01:17:41.790Z,4.10
2017-09-13T01:20:09.235Z,3.57
2017-09-13T01:22:36.672Z,3.42
2017-09-13T01:25:04.111Z,3.60
2017-09-13T01:27:31.546Z,3.25
2017-09-13T01:29:59.818Z,3.90
2017-09-13T01:32:27.254Z,4.30
2017-09-13T01:34:54.688Z,5.10
2017-09-13T01:37:22.115Z,5.45
2017-09-13T01:39:49.628Z,6.50
2017-09-13T01:42:17.174Z,6.37
2017-09-13T01:44:44.618Z,7.30
2017-09-13T01:47:12.266Z,7.15
2017-09-13T01:49:39.718Z,7.32
2017-09-13T01:52:07.163Z,6.80
2017-09-13T01:54:34.598Z,6.83
2017-09-13T01:57:02.827Z,6.97
2017-09-13T01:59:30.263Z,7.60
2017-09-13T02:01:57.738Z,8.20
2017-09-13T02:04:25.160Z,8.70
2017-09-13T02:06:52.659Z,10.30
2017-09-13T02:09:20.124Z,10.30
2017-09-13T02:11:48.354Z,9.23
2017-09-13T02:14:15.903Z,10.60
2017-09-13T02:16:43.372Z,10.68
2017-09-13T02:19:10.822Z,10.77
2017-09-13T02:21:38.288Z,11.12
2017-09-13T02:24:05.757Z,11.25
2017-09-13T02:26:33.198Z,11.57
2017-09-13T02:29:00.672Z,11.45
2017-09-13T02:31:28.102Z,11.07
2017-09-13T02:33:55.555Z,11.70
2017-09-13T02:36:23.023Z,11.45
2017-09-13T02:38:50.486Z,11.30
2017-09-13T02:41:17.944Z,10.65
2017-09-13T02:43:45.385Z,10.90
2017-09-13T02:46:12.924Z,10.93
2017-09-13T02:48:40.346Z,10.90
2017-09-13T02:51:07.814Z,10.77
2017-09-13T02:53:35.308Z,11.30
2017-09-13T02:56:02.781Z,10.48
2017-09-13T02:58:30.333Z,10.63
2017-09-13T03:00:57.801Z,10.52
2017-09-13T03:03:25.265Z,9.70
2017-09-13T03:05:52.800Z,10.02
2017-09-13T03:08:20.235Z,9.90
2017-09-13T03:10:47.673Z,9.07
2017-09-13T03:13:15.120Z,8.55
2017-09-13T03:15:43.346Z,9.30
2017-09-13T03:18:10.831Z,9.10
2017-09-13T03:20:38.355Z,8.60
2017-09-13T03:23:05.827Z,9.27
2017-09-13T03:25:33.270Z,8.25
2017-09-13T03:28:00.718Z,8.53
2017-09-13T03:30:28.190Z,7.90
2017-09-13T03:32:55.650Z,8.38
2017-09-13T03:35:23.129Z,8.10
2017-09-13T03:37:50.681Z,7.70
2017-09-13T03:40:18.203Z,7.87
2017-09-13T03:42:45.663Z,7.90
2017-09-13T03:45:13.110Z,6.80
2017-09-13T03:47:40.539Z,7.57
2017-09-13T03:50:07.979Z,7.60
2017-09-13T03:52:36.176Z,6.40
2017-09-13T03:55:03.635Z,6.25
2017-09-13T03:57:31.092Z,6.90
2017-09-13T03:59:58.600Z,6.43
2017-09-13T04:02:26.046Z,6.28
2017-09-13T04:04:53.482Z,6.80
2017-09-13T04:07:20.951Z,6.03
2017-09-13T04:09:48.420Z,5.80
2017-09-13T04:12:15.979Z,5.62
2017-09-13T04:14:43.511Z,5.53
2017-09-13T04:17:10.979Z,6.87
2017-09-13T04:19:38.439Z,5.60
2017-09-13T04:22:05.878Z,5.70
2017-09-13T04:24:33.322Z,5.72
2017-09-13T04:27:00.754Z,5.70
2017-09-13T04:29:28.247Z,5.60
2017-09-13T04:31:55.696Z,5.60
2017-09-13T04:34:23.170Z,5.60
2017-09-13T04:36:51.693Z,5.33
2017-09-13T04:39:19.227Z,5.55
2017-09-13T04:41:46.652Z,5.65
2017-09-13T04:44:14.104Z,5.78
2017-09-13T04:46:41.547Z,5.40
2017-09-13T04:49:09.026Z,5.87
2017-09-13T04:51:36.482Z,4.80
2017-09-13T04:54:03.979Z,5.03
2017-09-13T04:56:31.525Z,5.80
2017-09-13T04:58:58.959Z,5.40
2017-09-13T05:01:26.411Z,5.05
2017-09-13T05:03:53.883Z,4.72
2017-09-13T05:06:21.359Z,5.30
2017-09-13T05:08:49.606Z,5.87
2017-09-13T05:11:17.057Z,5.40
2017-09-13T05:13:44.650Z,5.60
2017-09-13T05:16:12.081Z,4.57
2017-09-13T05:18:39.534Z,5.10
2017-09-13T05:21:07.085Z,5.22
2017-09-13T05:23:34.539Z,5.07
2017-09-13T05:26:01.972Z,5.00
2017-09-13T05:28:29.468Z,4.70
2017-09-13T05:30:56.930Z,4.30
2017-09-13T05:33:24.376Z,4.12
2017-09-13T05:35:51.929Z,4.93
2017-09-13T05:38:19.368Z,4.33
2017-09-13T05:40:46.836Z,4.20
2017-09-13T05:43:14.375Z,5.18
2017-09-13T05:45:41.804Z,4.85
2017-09-13T05:48:09.288Z,4.10
2017-09-13T05:50:36.741Z,5.12
2017-09-13T05:53:04.223Z,6.18
2017-09-13T05:55:32.431Z,5.43
2017-09-13T05:57:59.907Z,6.62
2017-09-13T06:00:27.347Z,5.85
2017-09-13T06:02:54.799Z,4.90
2017-09-13T06:05:22.260Z,6.00
2017-09-13T06:07:49.767Z,4.65
2017-09-13T06:10:18.125Z,4.72
2017-09-13T06:12:45.660Z,4.90
2017-09-13T06:15:13.087Z,4.93
2017-09-13T06:17:40.604Z,4.50
2017-09-13T06:20:08.868Z,5.07
2017-09-13T06:22:36.323Z,4.90
2017-09-13T06:25:03.876Z,4.93
2017-09-13T06:27:31.346Z,4.70
2017-09-13T06:29:58.862Z,4.60
2017-09-13T06:32:26.291Z,4.50
2017-09-13T06:34:53.751Z,4.90
2017-09-13T06:37:21.178Z,4.57
2017-09-13T06:39:48.638Z,5.10
2017-09-13T06:42:16.142Z,5.62
2017-09-13T06:44:43.569Z,4.53
2017-09-13T06:47:11.159Z,4.97
2017-09-13T06:49:38.600Z,5.35
2017-09-13T06:52:06.068Z,4.93
2017-09-13T06:54:33.576Z,5.30
2017-09-13T06:57:01.102Z,4.20
2017-09-13T06:59:29.317Z,4.10
2017-09-13T07:01:56.759Z,3.40
2017-09-13T07:04:24.238Z,3.90
2017-09-13T07:06:51.664Z,4.00
2017-09-13T07:09:19.146Z,3.28
2017-09-13T07:11:46.566Z,3.60
2017-09-13T07:14:14.051Z,4.20
2017-09-13T07:16:41.475Z,3.40
2017-09-13T07:19:08.919Z,3.33
2017-09-13T07:21:37.166Z,3.30
2017-09-13T07:24:04.728Z,2.78
2017-09-13T07:26:32.191Z,3.35
2017-09-13T07:28:59.716Z,2.90
2017-09-13T07:31:27.183Z,2.80
2017-09-13T07:33:54.662Z,2.30
2017-09-13T07:36:22.099Z,3.10
2017-09-13T07:38:49.549Z,2.50
2017-09-13T07:41:16.984Z,2.45
2017-09-13T07:43:44.467Z,2.60
2017-09-13T07:46:12.000Z,3.30
2017-09-13T07:48:39.521Z,3.10
2017-09-13T07:51:07.719Z,3.10
2017-09-13T07:53:35.159Z,2.60
2017-09-13T07:56:02.662Z,3.60
2017-09-13T07:58:30.114Z,2.85
2017-09-13T08:00:57.558Z,2.90
2017-09-13T08:03:24.989Z,2.97
2017-09-13T08:05:52.445Z,2.50
2017-09-13T08:08:20.687Z,2.90
2017-09-13T08:10:48.949Z,2.58
2017-09-13T08:13:16.495Z,2.30
2017-09-13T08:15:43.951Z,3.00
2017-09-13T08:18:11.411Z,2.05
2017-09-13T08:20:38.844Z,2.58
2017-09-13T08:23:07.035Z,2.80
2017-09-13T08:25:34.762Z,2.40
2017-09-13T08:28:02.280Z,2.70
2017-09-13T08:30:29.771Z,2.80
2017-09-13T08:32:57.278Z,2.40
2017-09-13T08:35:24.752Z,3.30
2017-09-13T08:37:52.171Z,2.83
2017-09-13T08:40:20.483Z,3.00
2017-09-13T08:42:47.923Z,2.80
2017-09-13T08:45:15.359Z,3.17
2017-09-13T08:47:43.583Z,3.10
2017-09-13T08:50:11.043Z,2.90
2017-09-13T08:52:38.599Z,3.33
2017-09-13T08:55:06.075Z,2.60
2017-09-13T08:57:34.400Z,3.30
2017-09-13T09:00:01.853Z,2.90
2017-09-13T09:02:29.287Z,2.65
2017-09-13T09:04:57.506Z,2.70
2017-09-13T09:07:24.949Z,2.90
2017-09-13T09:09:52.454Z,3.30
2017-09-13T09:12:19.901Z,3.65
2017-09-13T09:14:47.359Z,3.15
2017-09-13T09:17:14.827Z,3.30
2017-09-13T09:19:42.345Z,2.80
2017-09-13T09:22:10.764Z,3.55
2017-09-13T09:24:38.191Z,3.37
2017-09-13T09:27:06.804Z,2.58
2017-09-13T09:29:34.258Z,2.80
2017-09-13T09:32:01.803Z,3.40
2017-09-13T09:34:30.262Z,3.08
2017-09-13T09:36:57.725Z,2.90
2017-09-13T09:39:25.266Z,3.20
2017-09-13T09:41:52.684Z,3.10
2017-09-13T09:44:20.919Z,3.20
2017-09-13T09:46:48.377Z,2.72
2017-09-13T09:49:15.803Z,2.80
2017-09-13T09:51:43.248Z,3.50
2017-09-13T09:54:10.721Z,3.15
2017-09-13T09:56:38.207Z,2.80
2017-09-13T09:59:06.427Z,2.90
2017-09-13T10:01:33.883Z,2.75
2017-09-13T10:04:01.344Z,3.67
2017-09-13T10:06:29.552Z,3.20
2017-09-13T10:08:57.023Z,3.20
2017-09-13T10:11:24.572Z,3.72
2017-09-13T10:13:52.267Z,3.90
2017-09-13T10:16:20.506Z,3.33
2017-09-13T10:18:47.938Z,3.53
2017-09-13T10:21:15.422Z,3.10
2017-09-13T10:23:42.855Z,3.62
2017-09-13T10:26:10.304Z,3.40
2017-09-13T10:28:37.787Z,3.40
2017-09-13T10:31:05.228Z,3.00
2017-09-13T10:33:32.658Z,3.55
2017-09-13T10:36:00.097Z,3.58
2017-09-13T10:38:28.294Z,3.60
2017-09-13T10:40:55.760Z,2.92
2017-09-13T10:43:23.273Z,2.60
2017-09-13T10:45:50.699Z,2.30
2017-09-13T10:48:18.322Z,2.20
2017-09-13T10:50:45.756Z,2.15
2017-09-13T10:53:13.248Z,2.20
2017-09-13T10:55:41.451Z,2.40
2017-09-13T10:58:08.922Z,2.60
2017-09-13T11:00:36.388Z,1.70
2017-09-13T11:03:03.868Z,1.90
2017-09-13T11:05:31.297Z,1.80
2017-09-13T11:07:58.771Z,2.10
2017-09-13T11:10:26.200Z,1.80
2017-09-13T11:12:53.699Z,2.25
2017-09-13T11:15:21.234Z,2.12
2017-09-13T11:17:48.686Z,2.37
2017-09-13T11:20:16.168Z,1.50
2017-09-13T11:22:43.735Z,1.70
2017-09-13T11:25:11.951Z,1.50
2017-09-13T11:27:39.470Z,1.30
2017-09-13T11:30:07.671Z,1.60
2017-09-13T11:32:35.121Z,1.50
2017-09-13T11:35:02.619Z,1.70
2017-09-13T11:37:30.086Z,2.00
2017-09-13T11:39:57.646Z,1.20
2017-09-13T11:42:25.071Z,1.67
2017-09-13T11:44:52.680Z,1.45
2017-09-13T11:47:20.927Z,1.20
2017-09-13T11:49:48.381Z,1.65
2017-09-13T11:52:16.592Z,1.45
2017-09-13T11:54:44.144Z,1.50
2017-09-13T11:57:11.567Z,1.60
2017-09-13T11:59:39.885Z,1.40
2017-09-13T12:02:07.337Z,1.80
2017-09-13T12:04:34.783Z,1.37
2017-09-13T12:07:02.235Z,2.00
2017-09-13T12:09:29.783Z,1.73
2017-09-13T12:11:57.209Z,1.40
2017-09-13T12:14:25.411Z,1.30
2017-09-13T12:16:52.915Z,1.50
2017-09-13T12:19:20.346Z,1.62
2017-09-13T12:21:47.827Z,1.50
2017-09-13T12:24:15.312Z,1.50
2017-09-13T12:26:42.888Z,1.67
2017-09-13T12:29:11.119Z,1.40
2017-09-13T12:31:38.572Z,1.70
2017-09-13T12:34:06.042Z,1.70
2017-09-13T12:36:33.481Z,1.63
2017-09-13T12:39:00.921Z,1.85
2017-09-13T12:41:28.363Z,1.90
2017-09-13T12:43:55.930Z,1.70
2017-09-13T12:46:23.410Z,2.20
2017-09-13T12:48:50.887Z,1.73
2017-09-13T12:51:18.345Z,2.03
2017-09-13T12:53:45.878Z,2.10
2017-09-13T12:56:13.339Z,2.00
2017-09-13T12:58:40.786Z,1.80
2017-09-13T13:01:08.383Z,1.90
2017-09-13T13:03:37.336Z,1.65
2017-09-13T13:06:04.913Z,1.33
2017-09-13T13:08:32.348Z,1.52
2017-09-13T13:10:59.938Z,1.70
2017-09-13T13:13:27.387Z,1.23
2017-09-13T13:15:54.936Z,1.47
2017-09-13T13:18:22.517Z,1.98
2017-09-13T13:20:50.072Z,1.73
2017-09-13T13:23:17.687Z,1.30
2017-09-13T13:25:45.178Z,1.40
2017-09-13T13:28:12.687Z,1.35
2017-09-13T13:30:40.279Z,1.33
2017-09-13T13:33:07.763Z,1.45
2017-09-13T13:35:35.299Z,1.30
2017-09-13T13:38:02.759Z,1.60
2017-09-13T13:40:30.238Z,1.80
2017-09-13T13:42:57.667Z,1.50
2017-09-13T13:45:25.224Z,1.67
2017-09-13T13:47:52.655Z,1.30
2017-09-13T13:50:20.152Z,1.90
2017-09-13T13:52:47.591Z,1.65
2017-09-13T13:55:15.082Z,1.30
2017-09-13T13:57:42.516Z,1.30
2017-09-13T14:00:09.968Z,1.75
2017-09-13T14:02:37.417Z,1.60
2017-09-13T14:05:04.851Z,1.40
2017-09-13T14:07:32.289Z,1.40
2017-09-13T14:09:59.723Z,1.50
2017-09-13T14:12:27.955Z,1.40
2017-09-13T14:14:55.408Z,1.60
2017-09-13T14:17:22.875Z,1.60
2017-09-13T14:19:50.327Z,1.52
2017-09-13T14:22:17.794Z,2.17
2017-09-13T14:24:45.239Z,1.50
2017-09-13T14:27:12.688Z,1.70
2017-09-13T14:29:40.135Z,2.50
2017-09-13T14:32:07.607Z,2.07
2017-09-13T14:34:35.071Z,1.62
2017-09-13T14:37:02.601Z,1.90
2017-09-13T14:39:30.055Z,2.60
2017-09-13T14:41:57.513Z,1.70
2017-09-13T14:44:24.935Z,1.90
2017-09-13T14:46:53.144Z,1.92
2017-09-13T14:49:20.567Z,2.00
2017-09-13T14:51:48.191Z,2.00
2017-09-13T14:54:15.632Z,1.60
2017-09-13T14:56:43.063Z,1.60
2017-09-13T14:59:10.571Z,1.40
2017-09-13T15:01:38.026Z,1.40
2017-09-13T15:04:05.456Z,1.60
2017-09-13T15:06:32.898Z,1.17
2017-09-13T15:09:00.351Z,1.40
2017-09-13T15:11:27.832Z,1.35
2017-09-13T15:13:55.408Z,1.50
2017-09-13T15:16:22.848Z,1.20
2017-09-13T15:18:50.314Z,1.70
2017-09-13T15:21:17.755Z,1.67
2017-09-13T15:23:45.195Z,1.60
2017-09-13T15:26:12.631Z,1.77
2017-09-13T15:28:40.345Z,1.80
2017-09-13T15:31:07.873Z,1.33
2017-09-13T15:33:35.468Z,1.75
2017-09-13T15:36:03.018Z,2.00
2017-09-13T15:41:04.439Z,1.55
2017-09-13T15:43:31.891Z,1.90
2017-09-13T15:46:00.097Z,1.70
2017-09-13T15:48:27.582Z,1.50
2017-09-13T15:50:55.813Z,1.80
2017-09-13T15:53:23.240Z,1.77
2017-09-13T15:55:51.440Z,1.90
2017-09-13T15:58:18.951Z,1.73
2017-09-13T16:00:46.400Z,1.70
2017-09-13T16:03:14.732Z,1.70
2017-09-13T16:05:42.159Z,1.80
2017-09-13T16:08:10.365Z,1.50
2017-09-13T16:10:37.846Z,1.42
2017-09-13T16:13:05.321Z,1.50
2017-09-13T16:15:32.864Z,1.60
2017-09-13T16:18:00.292Z,1.50
2017-09-13T16:20:27.723Z,1.80
2017-09-13T16:22:55.188Z,2.00
2017-09-13T16:25:23.384Z,1.70
2017-09-13T16:27:50.847Z,2.30
2017-09-13T16:30:18.420Z,1.58
2017-09-13T16:32:45.883Z,1.50
2017-09-13T16:35:13.335Z,1.58
2017-09-13T16:37:40.843Z,1.63
2017-09-13T16:40:09.128Z,1.50
2017-09-13T16:42:37.332Z,1.85
2017-09-13T16:45:04.770Z,2.00
2017-09-13T16:47:32.258Z,1.52
2017-09-13T16:49:59.699Z,2.10
2017-09-13T16:52:27.299Z,1.60
2017-09-13T16:54:54.730Z,1.60
2017-09-13T16:57:22.208Z,1.50
2017-09-13T16:59:49.658Z,1.55
2017-09-13T17:02:17.095Z,1.70
2017-09-13T17:04:44.534Z,1.70
2017-09-13T17:07:11.976Z,2.10
2017-09-13T17:09:39.458Z,2.00
2017-09-13T17:12:06.905Z,2.10
2017-09-13T17:14:34.551Z,1.90
2017-09-13T17:17:02.003Z,3.80
2017-09-13T17:19:29.467Z,1.62
2017-09-13T17:21:56.911Z,1.90
2017-09-13T17:24:24.366Z,2.10
2017-09-13T17:26:51.811Z,2.30
2017-09-13T17:29:19.243Z,2.22
2017-09-13T17:31:46.727Z,1.80
2017-09-13T17:34:14.154Z,1.70
2017-09-13T17:36:43.392Z,1.60
2017-09-13T17:39:10.957Z,1.60
2017-09-13T17:41:38.471Z,1.60
2017-09-13T17:44:06.670Z,1.90
2017-09-13T17:46:34.100Z,1.70
2017-09-13T17:49:01.546Z,1.90
2017-09-13T17:51:28.986Z,1.70
2017-09-13T17:53:56.465Z,1.75
2017-09-13T17:56:23.898Z,1.70
2017-09-13T17:58:51.332Z,2.00
2017-09-13T18:01:18.763Z,2.00
2017-09-13T18:03:46.213Z,2.10
2017-09-13T18:06:13.672Z,1.73
2017-09-13T18:08:41.147Z,2.40
2017-09-13T18:11:08.640Z,2.00
2017-09-13T18:13:36.082Z,1.95
2017-09-13T18:16:03.516Z,1.90
2017-09-13T18:18:30.942Z,1.62
2017-09-13T18:20:58.383Z,2.03
2017-09-13T18:23:25.824Z,1.70
2017-09-13T18:25:53.388Z,2.20
2017-09-13T18:28:21.592Z,2.55
2017-09-13T18:30:49.057Z,2.60
2017-09-13T18:33:16.495Z,2.30
2017-09-13T18:35:43.960Z,2.07
2017-09-13T18:38:11.390Z,2.62
2017-09-13T18:40:39.682Z,2.00
2017-09-13T18:43:07.111Z,1.85
2017-09-13T18:45:35.346Z,2.12
2017-09-13T18:48:02.812Z,3.10
2017-09-13T18:50:30.310Z,2.90
2017-09-13T18:52:58.587Z,2.00
2017-09-13T18:55:26.122Z,2.50
2017-09-13T18:57:53.598Z,2.20
2017-09-13T19:00:21.796Z,2.45
2017-09-13T19:02:49.428Z,2.10
2017-09-13T19:05:16.942Z,2.08
2017-09-13T19:07:44.413Z,2.37
2017-09-13T19:10:11.902Z,2.15
2017-09-13T19:12:40.103Z,2.30
2017-09-13T19:15:07.539Z,2.40
2017-09-13T19:17:35.008Z,2.30
2017-09-13T19:20:02.448Z,2.00
2017-09-13T19:22:30.677Z,2.53
2017-09-13T19:24:58.115Z,2.10
2017-09-13T19:27:25.594Z,1.80
2017-09-13T19:29:53.107Z,2.12
2017-09-13T19:32:20.535Z,2.00
2017-09-13T19:34:47.974Z,2.53
2017-09-13T19:37:15.390Z,2.12
2017-09-13T19:39:42.875Z,2.40
2017-09-13T19:42:10.315Z,2.20
2017-09-13T19:44:37.752Z,2.20
2017-09-13T19:47:05.227Z,2.20
2017-09-13T19:49:32.664Z,2.20
2017-09-13T19:52:00.147Z,2.62
2017-09-13T19:54:27.621Z,2.40
2017-09-13T19:56:55.067Z,2.30
2017-09-13T19:59:22.629Z,2.90
2017-09-13T20:01:50.066Z,2.90
2017-09-13T20:04:17.503Z,2.60
2017-09-13T20:06:44.971Z,2.50
2017-09-13T20:09:12.447Z,2.30
2017-09-13T20:11:39.883Z,2.45
2017-09-13T20:14:07.337Z,2.60
2017-09-13T20:16:34.815Z,2.60
2017-09-13T20:19:02.356Z,2.97
2017-09-13T20:21:29.777Z,2.20
2017-09-13T20:23:57.991Z,2.25
2017-09-13T20:26:25.411Z,2.10
2017-09-13T20:28:52.917Z,2.20
2017-09-13T20:31:20.347Z,2.10
2017-09-13T20:33:47.817Z,2.00
2017-09-13T20:36:15.288Z,1.95
2017-09-13T20:38:42.746Z,1.90
2017-09-13T20:41:10.255Z,2.30
2017-09-13T20:43:37.733Z,1.90
2017-09-13T20:46:05.292Z,1.67
2017-09-13T20:48:33.515Z,1.60
2017-09-13T20:51:01.054Z,1.90
2017-09-13T20:53:28.516Z,2.10
2017-09-13T20:55:56.082Z,1.90
2017-09-13T20:58:23.508Z,2.10
2017-09-13T21:00:50.980Z,1.83
2017-09-13T21:03:18.414Z,1.70
2017-09-13T21:05:45.859Z,2.23
2017-09-13T21:08:13.299Z,1.80
2017-09-13T21:10:40.754Z,1.90
2017-09-13T21:13:08.207Z,1.50
2017-09-13T21:15:35.636Z,2.00
2017-09-13T21:18:03.099Z,1.70
2017-09-13T21:20:31.348Z,1.87
2017-09-13T21:22:58.877Z,1.73
2017-09-13T21:25:26.334Z,1.70
2017-09-13T21:27:53.784Z,2.10
2017-09-13T21:30:21.207Z,1.50
2017-09-13T21:32:49.442Z,1.40
2017-09-13T21:35:16.873Z,1.42
2017-09-13T21:37:44.311Z,1.58
2017-09-13T21:40:11.812Z,1.90
2017-09-13T21:42:39.287Z,1.40
2017-09-13T21:45:06.823Z,1.70
2017-09-13T21:47:34.299Z,1.70
2017-09-13T21:50:01.725Z,1.50
2017-09-13T21:52:29.246Z,1.70
2017-09-13T21:54:57.480Z,1.60
2017-09-13T21:57:24.939Z,1.37
2017-09-13T21:59:52.379Z,1.50
2017-09-13T22:02:19.828Z,1.50
2017-09-13T22:04:47.259Z,1.75
2017-09-13T22:07:14.699Z,2.05
2017-09-13T22:09:42.139Z,2.00
2017-09-13T22:12:11.128Z,1.90
2017-09-13T22:14:38.571Z,1.90
2017-09-13T22:17:05.990Z,1.70
2017-09-13T22:19:33.434Z,1.70
2017-09-13T22:22:00.887Z,1.80
2017-09-13T22:24:28.333Z,1.60
2017-09-13T22:26:55.818Z,1.40
2017-09-13T22:29:23.263Z,2.20
2017-09-13T22:31:50.707Z,1.50
2017-09-13T22:34:18.202Z,1.80
2017-09-13T22:36:45.636Z,2.00
2017-09-13T22:39:13.084Z,2.10
2017-09-13T22:41:40.592Z,1.67
2017-09-13T22:44:08.133Z,2.20
2017-09-13T22:46:35.587Z,2.10
2017-09-13T22:49:03.043Z,1.50
2017-09-13T22:51:30.466Z,1.58
2017-09-13T22:53:57.949Z,1.87
2017-09-13T22:56:25.414Z,2.00
2017-09-13T22:58:52.853Z,1.93
2017-09-13T23:01:20.290Z,1.40
2017-09-13T23:03:47.731Z,1.67
2017-09-13T23:06:15.928Z,1.83
2017-09-13T23:08:43.362Z,1.80
2017-09-13T23:11:11.590Z,1.80
2017-09-13T23:13:39.037Z,1.55
2017-09-13T23:16:06.472Z,2.10
2017-09-13T23:18:33.903Z,1.70
2017-09-13T23:21:01.364Z,1.60
2017-09-13T23:23:28.790Z,2.00
2017-09-13T23:25:56.239Z,2.00
2017-09-13T23:28:24.435Z,2.20
2017-09-13T23:30:52.679Z,1.80
2017-09-13T23:33:20.110Z,2.13
2017-09-13T23:35:47.556Z,1.95
2017-09-13T23:38:15.050Z,1.90
2017-09-13T23:40:42.503Z,1.67
2017-09-13T23:43:09.955Z,1.80
2017-09-13T23:45:37.382Z,2.47
2017-09-13T23:48:04.835Z,1.60
2017-09-13T23:50:32.259Z,2.70
2017-09-13T23:53:00.496Z,1.90
2017-09-13T23:55:27.972Z,2.80
2017-09-13T23:57:55.403Z,2.50
